createdAt,value
2024-04-23T00:00:20.044Z,2.17
2024-04-23T00:02:47.049Z,2.63
2024-04-23T00:05:14.144Z,2.30
2024-04-23T00:07:41.199Z,2.25
2024-04-23T00:10:08.164Z,2.40
2024-04-23T00:12:35.137Z,2.15
2024-04-23T00:15:02.103Z,2.58
2024-04-23T00:17:29.180Z,2.30
2024-04-23T00:19:56.291Z,2.25
2024-04-23T00:22:23.453Z,2.22
2024-04-23T00:24:50.450Z,2.75
2024-04-23T00:27:17.421Z,2.47
2024-04-23T00:29:44.455Z,2.47
2024-04-23T00:32:12.415Z,2.60
2024-04-23T00:34:39.529Z,2.67
2024-04-23T00:37:06.621Z,2.75
2024-04-23T00:39:33.593Z,2.30
2024-04-23T00:42:00.568Z,2.45
2024-04-23T00:44:27.515Z,2.42
2024-04-23T00:46:55.442Z,2.47
2024-04-23T00:49:22.784Z,2.55
2024-04-23T00:51:51.855Z,2.38
2024-04-23T00:54:21.710Z,2.83
2024-04-23T00:56:48.887Z,2.72
2024-04-23T00:59:17.682Z,2.40
2024-04-23T01:01:45.701Z,2.70
2024-04-23T01:04:13.589Z,2.53
2024-04-23T01:06:41.213Z,2.38
2024-04-23T01:09:08.999Z,2.50
2024-04-23T01:11:36.765Z,2.60
2024-04-23T01:14:05.247Z,2.88
2024-04-23T01:16:36.187Z,2.33
2024-04-23T01:19:06.122Z,2.80
2024-04-23T01:21:44.180Z,2.67
2024-04-23T01:24:17.058Z,2.28
2024-04-23T01:26:44.447Z,2.63
2024-04-23T01:29:11.662Z,2.65
2024-04-23T01:31:39.774Z,2.45
2024-04-23T01:34:07.039Z,2.53
2024-04-23T01:36:34.022Z,2.70
2024-04-23T01:39:02.050Z,2.50
2024-04-23T01:41:29.321Z,2.58
2024-04-23T01:43:58.213Z,2.50
2024-04-23T01:46:25.675Z,2.55
2024-04-23T01:48:53.212Z,2.58
2024-04-23T01:51:20.248Z,2.88
2024-04-23T01:53:47.196Z,2.40
2024-04-23T01:56:14.243Z,2.42
2024-04-23T01:58:43.255Z,2.95
2024-04-23T02:01:11.948Z,2.53
2024-04-23T02:03:39.601Z,2.55
2024-04-23T02:06:07.501Z,2.75
2024-04-23T02:08:34.516Z,3.03
2024-04-23T02:11:01.567Z,2.53
2024-04-23T02:13:28.742Z,2.60
2024-04-23T02:15:55.778Z,2.45
2024-04-23T02:18:22.864Z,2.35
2024-04-23T02:20:49.892Z,2.65
2024-04-23T02:23:16.902Z,2.25
2024-04-23T02:25:43.886Z,2.33
2024-04-23T02:28:10.917Z,2.83
2024-04-23T02:30:38.999Z,2.03
2024-04-23T02:33:11.631Z,2.47
2024-04-23T02:35:39.647Z,2.45
2024-04-23T02:38:06.364Z,2.63
2024-04-23T02:40:33.175Z,2.33
2024-04-23T02:42:59.876Z,2.35
2024-04-23T02:45:30.035Z,2.35
2024-04-23T02:47:57.993Z,2.53
2024-04-23T02:50:24.715Z,2.25
2024-04-23T02:52:51.423Z,2.30
2024-04-23T02:55:18.092Z,2.25
2024-04-23T02:57:44.718Z,3.08
2024-04-23T03:00:11.886Z,2.50
2024-04-23T03:02:38.636Z,2.10
2024-04-23T03:05:05.581Z,2.65
2024-04-23T03:07:32.353Z,2.38
2024-04-23T03:09:59.053Z,2.40
2024-04-23T03:12:25.739Z,2.35
2024-04-23T03:14:52.391Z,2.70
2024-04-23T03:17:19.037Z,2.00
2024-04-23T03:19:45.815Z,2.20
2024-04-23T03:22:12.567Z,2.38
2024-04-23T03:24:39.687Z,2.22
2024-04-23T03:27:06.421Z,1.98
2024-04-23T03:29:33.132Z,2.20
2024-04-23T03:32:02.812Z,2.22
2024-04-23T03:34:30.532Z,2.67
2024-04-23T03:36:57.872Z,2.33
2024-04-23T03:39:25.091Z,2.33
2024-04-23T03:41:55.373Z,2.42
2024-04-23T03:44:22.077Z,2.58
2024-04-23T03:46:48.831Z,2.10
2024-04-23T03:49:15.486Z,2.15
2024-04-23T03:51:42.159Z,2.50
2024-04-23T03:54:08.831Z,2.45
2024-04-23T03:56:36.977Z,2.72
2024-04-23T03:59:03.888Z,2.50
2024-04-23T04:01:30.648Z,2.40
2024-04-23T04:04:15.943Z,2.83
2024-04-23T04:06:42.615Z,2.58
2024-04-23T04:09:09.285Z,2.15
2024-04-23T04:11:37.646Z,2.78
2024-04-23T04:14:04.469Z,2.65
2024-04-23T04:16:33.404Z,2.25
2024-04-23T04:19:01.952Z,2.70
2024-04-23T04:21:28.636Z,2.97
2024-04-23T04:23:55.334Z,2.45
2024-04-23T04:26:21.989Z,2.53
2024-04-23T04:28:48.699Z,2.30
2024-04-23T04:31:15.418Z,2.83
2024-04-23T04:33:42.496Z,2.40
2024-04-23T04:36:09.568Z,2.70
2024-04-23T04:38:36.585Z,2.35
2024-04-23T04:41:03.855Z,2.35
2024-04-23T04:46:00.665Z,2.65
2024-04-23T04:48:28.051Z,2.78
2024-04-23T04:50:56.286Z,2.70
2024-04-23T04:53:23.299Z,2.83
2024-04-23T04:55:50.365Z,2.70
2024-04-23T04:58:17.356Z,2.55
2024-04-23T05:00:45.021Z,2.90
2024-04-23T05:03:12.101Z,3.53
2024-04-23T05:05:39.048Z,3.50
2024-04-23T05:08:06.628Z,3.45
2024-04-23T05:10:33.966Z,2.95
2024-04-23T05:13:00.982Z,3.35
2024-04-23T05:15:27.999Z,3.58
2024-04-23T05:17:55.060Z,3.10
2024-04-23T05:20:22.136Z,2.65
2024-04-23T05:22:49.171Z,3.13
2024-04-23T05:25:16.134Z,3.08
2024-04-23T05:27:43.160Z,2.83
2024-04-23T05:30:20.093Z,2.75
2024-04-23T05:32:50.066Z,2.60
2024-04-23T05:37:44.757Z,2.60
2024-04-23T05:40:12.163Z,2.72
2024-04-23T05:42:39.298Z,3.05
2024-04-23T05:45:06.662Z,2.60
2024-04-23T05:47:52.505Z,3.08
2024-04-23T05:50:57.594Z,2.60
2024-04-23T05:54:02.251Z,2.38
2024-04-23T05:56:29.201Z,3.00
2024-04-23T05:58:56.210Z,3.05
2024-04-23T06:01:23.442Z,2.60
2024-04-23T06:03:50.456Z,2.85
2024-04-23T06:06:17.438Z,2.97
2024-04-23T06:08:44.442Z,3.10
2024-04-23T06:11:11.512Z,3.55
2024-04-23T06:13:38.633Z,3.53
2024-04-23T06:16:11.895Z,4.90
2024-04-23T06:18:39.008Z,4.10
2024-04-23T06:21:07.944Z,3.65
2024-04-23T06:23:34.910Z,3.83
2024-04-23T06:26:01.936Z,3.78
2024-04-23T06:28:34.227Z,4.50
2024-04-23T06:31:02.386Z,5.00
2024-04-23T06:33:29.404Z,5.00
2024-04-23T06:35:56.401Z,4.60
2024-04-23T06:38:23.388Z,3.97
2024-04-23T06:40:52.121Z,3.50
2024-04-23T06:43:19.146Z,3.80
2024-04-23T06:45:46.394Z,3.63
2024-04-23T06:48:17.209Z,3.42
2024-04-23T06:50:44.224Z,3.30
2024-04-23T06:53:12.232Z,3.22
2024-04-23T06:55:39.327Z,2.97
2024-04-23T06:58:06.778Z,2.75
2024-04-23T07:00:33.839Z,3.17
2024-04-23T07:03:04.367Z,3.08
2024-04-23T07:05:31.411Z,3.15
2024-04-23T07:07:59.711Z,3.22
2024-04-23T07:10:27.006Z,3.20
2024-04-23T07:12:54.003Z,3.80
2024-04-23T07:15:20.982Z,4.50
2024-04-23T07:17:49.920Z,3.50
2024-04-23T07:20:17.090Z,4.20
2024-04-23T07:22:44.162Z,3.97
2024-04-23T07:25:11.250Z,4.25
2024-04-23T07:27:40.776Z,4.30
2024-04-23T07:30:08.158Z,4.53
2024-04-23T07:32:35.220Z,3.60
2024-04-23T07:35:02.339Z,3.83
2024-04-23T07:37:29.369Z,3.58
2024-04-23T07:39:56.342Z,3.83
2024-04-23T07:42:23.318Z,3.90
2024-04-23T07:44:50.289Z,3.65
2024-04-23T07:47:19.249Z,3.75
2024-04-23T07:49:46.513Z,3.42
2024-04-23T07:52:13.500Z,3.15
2024-04-23T07:54:40.165Z,3.97
2024-04-23T07:57:06.833Z,3.92
2024-04-23T07:59:33.472Z,3.10
2024-04-23T08:02:00.306Z,3.15
2024-04-23T08:04:27.057Z,4.90
2024-04-23T08:06:53.733Z,3.70
2024-04-23T08:09:20.389Z,3.00
2024-04-23T08:11:47.347Z,3.70
2024-04-23T08:14:14.102Z,3.65
2024-04-23T08:16:40.822Z,3.40
2024-04-23T08:19:07.713Z,4.05
2024-04-23T08:21:38.076Z,3.58
2024-04-23T08:24:05.088Z,3.53
2024-04-23T08:26:31.903Z,3.13
2024-04-23T08:28:59.673Z,4.03
2024-04-23T08:31:26.944Z,3.70
2024-04-23T08:33:53.634Z,3.38
2024-04-23T08:36:20.492Z,3.50
2024-04-23T08:38:47.140Z,3.75
2024-04-23T08:41:19.605Z,3.53
2024-04-23T08:44:03.993Z,3.45
2024-04-23T08:46:31.355Z,3.60
2024-04-23T08:48:58.772Z,2.97
2024-04-23T08:51:25.536Z,3.70
2024-04-23T08:53:54.246Z,3.40
2024-04-23T08:56:24.012Z,2.70
2024-04-23T08:58:52.105Z,4.15
2024-04-23T09:01:40.084Z,2.53
2024-04-23T09:04:07.990Z,2.95
2024-04-23T09:06:35.469Z,2.78
2024-04-23T09:09:02.384Z,3.00
2024-04-23T09:11:30.070Z,2.47
2024-04-23T09:13:57.099Z,2.60
2024-04-23T09:16:24.486Z,2.33
2024-04-23T09:18:51.226Z,2.95
2024-04-23T09:21:17.960Z,2.72
2024-04-23T09:23:47.615Z,2.83
2024-04-23T09:26:14.644Z,2.90
2024-04-23T09:28:43.014Z,2.60
2024-04-23T09:31:16.596Z,2.53
2024-04-23T09:33:56.951Z,3.03
2024-04-23T09:36:28.262Z,2.50
2024-04-23T09:39:04.242Z,2.50
2024-04-23T09:46:32.759Z,2.67
2024-04-23T09:49:03.537Z,2.72
2024-04-23T09:51:31.441Z,2.83
2024-04-23T09:54:01.846Z,3.20
2024-04-23T09:56:28.912Z,3.08
2024-04-23T09:58:56.096Z,2.90
2024-04-23T10:01:27.129Z,3.15
2024-04-23T10:03:59.783Z,8.75
2024-04-23T10:06:30.000Z,3.40
2024-04-23T10:09:09.394Z,3.05
2024-04-23T10:11:57.143Z,3.25
2024-04-23T10:14:27.994Z,3.30
2024-04-23T10:17:03.016Z,3.00
2024-04-23T10:19:32.933Z,3.55
2024-04-23T10:22:02.317Z,3.25
2024-04-23T10:24:29.992Z,2.90
2024-04-23T10:26:58.092Z,3.25
2024-04-23T10:29:26.651Z,3.10
2024-04-23T10:31:54.101Z,3.58
2024-04-23T10:34:23.774Z,3.63
2024-04-23T10:36:52.529Z,3.35
2024-04-23T10:39:23.913Z,3.08
2024-04-23T10:41:52.846Z,3.08
2024-04-23T10:44:22.948Z,3.15
2024-04-23T10:46:50.152Z,3.20
2024-04-23T10:49:17.442Z,3.10
2024-04-23T10:51:45.807Z,3.55
2024-04-23T10:54:20.115Z,3.72
2024-04-23T10:57:08.486Z,3.20
2024-04-23T10:59:38.434Z,2.95
2024-04-23T11:02:10.512Z,3.60
2024-04-23T11:04:56.666Z,3.03
2024-04-23T11:07:28.632Z,3.50
2024-04-23T11:10:01.511Z,3.40
2024-04-23T11:12:32.284Z,3.25
2024-04-23T11:14:59.660Z,3.13
2024-04-23T11:17:27.371Z,3.35
2024-04-23T11:19:57.513Z,3.45
2024-04-23T11:22:45.662Z,3.85
2024-04-23T11:27:49.724Z,3.42
2024-04-23T11:30:17.163Z,2.67
2024-04-23T11:32:44.265Z,2.70
2024-04-23T11:35:12.539Z,2.58
2024-04-23T11:37:40.160Z,2.58
2024-04-23T11:40:07.907Z,2.85
2024-04-23T11:42:34.960Z,2.90
2024-04-23T11:45:05.682Z,2.65
2024-04-23T11:47:34.816Z,2.63
2024-04-23T11:50:06.911Z,2.70
2024-04-23T11:52:35.045Z,2.95
2024-04-23T11:55:04.979Z,2.72
2024-04-23T11:57:32.926Z,3.10
2024-04-23T12:00:02.660Z,2.88
2024-04-23T12:02:32.914Z,3.08
2024-04-23T12:05:02.991Z,3.25
2024-04-23T12:07:30.809Z,3.00
2024-04-23T12:10:05.066Z,2.67
2024-04-23T12:12:36.806Z,2.80
2024-04-23T12:15:04.338Z,2.90
2024-04-23T12:17:31.478Z,2.60
2024-04-23T12:19:58.603Z,2.58
2024-04-23T12:22:25.586Z,2.50
2024-04-23T12:24:52.691Z,2.70
2024-04-23T12:27:22.075Z,2.65
2024-04-23T12:29:49.185Z,2.50
2024-04-23T12:32:23.981Z,2.60
2024-04-23T12:34:57.122Z,2.72
2024-04-23T12:37:24.270Z,2.47
2024-04-23T12:39:54.343Z,2.63
2024-04-23T12:42:26.074Z,2.60
2024-04-23T12:44:53.822Z,2.85
2024-04-23T12:47:21.771Z,2.50
2024-04-23T12:49:49.406Z,2.95
2024-04-23T12:52:17.081Z,2.97
2024-04-23T12:54:44.654Z,2.90
2024-04-23T12:57:12.545Z,2.85
2024-04-23T12:59:39.754Z,2.60
2024-04-23T13:02:09.974Z,2.45
2024-04-23T13:04:37.568Z,3.13
2024-04-23T13:07:04.812Z,3.08
2024-04-23T13:09:31.813Z,3.15
2024-04-23T13:12:01.139Z,2.97
2024-04-23T13:14:28.236Z,3.20
2024-04-23T13:16:55.896Z,2.95
2024-04-23T13:19:26.275Z,3.17
2024-04-23T13:21:53.319Z,2.85
2024-04-23T13:24:20.398Z,2.80
2024-04-23T13:26:47.527Z,2.90
2024-04-23T13:29:14.720Z,2.63
2024-04-23T13:31:42.046Z,2.78
2024-04-23T13:34:09.219Z,2.80
2024-04-23T13:36:36.513Z,3.20
2024-04-23T13:39:03.588Z,2.80
2024-04-23T13:41:30.573Z,3.05
2024-04-23T13:43:57.560Z,3.03
2024-04-23T13:46:24.581Z,2.53
2024-04-23T13:48:51.733Z,2.95
2024-04-23T13:51:18.753Z,2.78
2024-04-23T13:53:46.382Z,2.45
2024-04-23T13:56:13.765Z,3.03
2024-04-23T13:58:41.082Z,2.50
2024-04-23T14:01:11.531Z,2.60
2024-04-23T14:03:39.695Z,2.60
2024-04-23T14:06:08.113Z,2.72
2024-04-23T14:08:35.827Z,2.70
2024-04-23T14:11:04.339Z,3.10
2024-04-23T14:13:35.557Z,2.88
2024-04-23T14:16:13.151Z,2.67
2024-04-23T14:18:42.097Z,2.80
2024-04-23T14:21:09.308Z,2.83
2024-04-23T14:23:36.664Z,2.75
2024-04-23T14:26:04.075Z,2.92
2024-04-23T14:28:35.406Z,2.97
2024-04-23T14:31:04.503Z,2.65
2024-04-23T14:33:32.327Z,3.20
2024-04-23T14:36:05.907Z,2.80
2024-04-23T14:38:33.156Z,2.95
2024-04-23T14:41:01.656Z,2.60
2024-04-23T14:43:28.845Z,3.47
2024-04-23T14:45:56.520Z,2.92
2024-04-23T14:48:24.359Z,3.40
2024-04-23T14:50:51.734Z,2.67
2024-04-23T14:53:21.485Z,3.47
2024-04-23T14:56:02.128Z,3.20
2024-04-23T14:58:30.576Z,2.92
2024-04-23T15:00:58.299Z,3.25
2024-04-23T15:03:25.656Z,2.80
2024-04-23T15:05:52.717Z,3.10
2024-04-23T15:08:19.815Z,3.10
2024-04-23T15:10:48.081Z,2.97
2024-04-23T15:13:15.808Z,3.20
2024-04-23T15:15:42.788Z,3.00
2024-04-23T15:18:09.856Z,3.15
2024-04-23T15:20:38.574Z,2.83
2024-04-23T15:23:05.988Z,2.80
2024-04-23T15:25:33.209Z,2.70
2024-04-23T15:28:00.203Z,2.70
2024-04-23T15:30:28.400Z,3.13
2024-04-23T15:32:56.544Z,2.97
2024-04-23T15:35:24.517Z,2.97
2024-04-23T15:37:51.735Z,3.35
2024-04-23T15:40:18.932Z,3.22
2024-04-23T15:42:45.941Z,3.13
2024-04-23T15:45:13.998Z,3.15
2024-04-23T15:47:41.439Z,3.00
2024-04-23T15:50:08.917Z,3.00
2024-04-23T15:52:36.072Z,3.17
2024-04-23T15:55:03.275Z,3.13
2024-04-23T15:57:30.285Z,3.28
2024-04-23T15:59:57.256Z,3.28
2024-04-23T16:02:28.642Z,3.20
2024-04-23T16:04:55.744Z,2.70
2024-04-23T16:07:22.592Z,3.20
2024-04-23T16:09:49.949Z,3.03
2024-04-23T16:12:16.935Z,3.67
2024-04-23T16:14:43.609Z,3.20
2024-04-23T16:17:10.345Z,2.85
2024-04-23T16:19:37.117Z,3.55
2024-04-23T16:22:03.802Z,2.83
2024-04-23T16:24:30.485Z,3.33
2024-04-23T16:27:01.103Z,3.05
2024-04-23T16:29:29.494Z,3.83
2024-04-23T16:31:57.486Z,3.45
2024-04-23T16:34:24.665Z,3.30
2024-04-23T16:36:54.125Z,3.38
2024-04-23T16:39:22.728Z,3.40
2024-04-23T16:41:51.094Z,3.63
2024-04-23T16:44:17.807Z,3.20
2024-04-23T16:46:44.506Z,3.22
2024-04-23T16:49:11.159Z,3.28
2024-04-23T16:51:37.844Z,3.20
2024-04-23T16:54:06.134Z,3.30
2024-04-23T16:56:32.854Z,3.60
2024-04-23T16:58:59.681Z,3.40
2024-04-23T17:01:26.441Z,3.25
2024-04-23T17:03:53.252Z,3.28
2024-04-23T17:06:19.944Z,3.67
2024-04-23T17:08:46.965Z,3.47
2024-04-23T17:11:13.661Z,4.18
2024-04-23T17:13:44.321Z,3.33
2024-04-23T17:16:15.334Z,4.00
2024-04-23T17:18:42.108Z,3.40
2024-04-23T17:21:16.196Z,3.35
2024-04-23T17:23:43.732Z,3.45
2024-04-23T17:26:11.135Z,3.65
2024-04-23T17:28:37.879Z,3.13
2024-04-23T17:31:05.190Z,3.70
2024-04-23T17:33:34.722Z,3.53
2024-04-23T17:36:01.722Z,3.58
2024-04-23T17:38:28.417Z,3.55
2024-04-23T17:40:55.136Z,3.42
2024-04-23T17:43:22.551Z,3.40
2024-04-23T17:45:49.453Z,2.92
2024-04-23T17:48:16.851Z,3.08
2024-04-23T17:50:43.681Z,3.50
2024-04-23T17:53:10.446Z,3.15
2024-04-23T17:55:37.208Z,3.33
2024-04-23T17:58:04.030Z,3.10
2024-04-23T18:00:30.999Z,3.10
2024-04-23T18:02:57.796Z,3.53
2024-04-23T18:05:24.908Z,3.92
2024-04-23T18:07:52.245Z,3.42
2024-04-23T18:10:19.279Z,3.13
2024-04-23T18:12:47.129Z,3.60
2024-04-23T18:15:14.223Z,3.95
2024-04-23T18:17:43.852Z,3.80
2024-04-23T18:20:11.022Z,4.50
2024-04-23T18:22:38.352Z,4.28
2024-04-23T18:25:05.663Z,4.43
2024-04-23T18:27:32.678Z,4.15
2024-04-23T18:29:59.660Z,4.50
2024-04-23T18:32:27.363Z,4.45
2024-04-23T18:34:54.404Z,4.57
2024-04-23T18:37:21.873Z,4.43
2024-04-23T18:39:49.181Z,4.72
2024-04-23T18:42:16.162Z,4.07
2024-04-23T18:44:43.160Z,5.20
2024-04-23T18:47:10.128Z,4.78
2024-04-23T18:49:37.257Z,4.47
2024-04-23T18:52:05.024Z,4.97
2024-04-23T18:54:33.466Z,5.10
2024-04-23T18:57:00.602Z,4.88
2024-04-23T18:59:27.582Z,5.63
2024-04-23T19:01:56.491Z,5.22
2024-04-23T19:04:23.558Z,5.22
2024-04-23T19:06:50.543Z,5.95
2024-04-23T19:09:17.562Z,5.95
2024-04-23T19:11:45.175Z,6.13
2024-04-23T19:14:16.605Z,5.03
2024-04-23T19:16:45.271Z,5.07
2024-04-23T19:19:12.596Z,6.03
2024-04-23T19:21:39.663Z,5.93
2024-04-23T19:24:07.058Z,5.78
2024-04-23T19:26:34.045Z,5.75
2024-04-23T19:29:01.224Z,6.00
2024-04-23T19:31:28.244Z,4.88
2024-04-23T19:33:55.344Z,5.30
2024-04-23T19:36:27.910Z,6.40
2024-04-23T19:38:54.895Z,6.05
2024-04-23T19:41:22.452Z,5.78
2024-04-23T19:43:53.030Z,6.40
2024-04-23T19:46:24.307Z,6.22
2024-04-23T19:48:53.136Z,6.03
2024-04-23T19:51:23.852Z,6.07
2024-04-23T19:53:51.670Z,5.97
2024-04-23T19:56:27.582Z,5.88
2024-04-23T19:58:57.193Z,5.30
2024-04-23T20:01:24.625Z,5.80
2024-04-23T20:03:51.756Z,5.57
2024-04-23T20:06:18.758Z,4.75
2024-04-23T20:08:45.735Z,5.30
2024-04-23T20:11:12.905Z,5.75
2024-04-23T20:13:40.973Z,6.25
2024-04-23T20:16:08.031Z,5.70
2024-04-23T20:18:35.079Z,6.05
2024-04-23T20:21:02.253Z,6.03
2024-04-23T20:23:29.248Z,5.93
2024-04-23T20:25:56.279Z,6.10
2024-04-23T20:28:23.604Z,6.40
2024-04-23T20:30:50.610Z,5.95
2024-04-23T20:33:17.734Z,5.60
2024-04-23T20:35:44.790Z,6.28
2024-04-23T20:38:11.810Z,6.38
2024-04-23T20:40:39.771Z,6.45
2024-04-23T20:43:06.910Z,6.43
2024-04-23T20:45:33.919Z,6.25
2024-04-23T20:48:01.010Z,5.28
2024-04-23T20:50:28.129Z,5.90
2024-04-23T20:52:55.119Z,6.75
2024-04-23T20:55:22.063Z,6.28
2024-04-23T20:57:49.044Z,6.03
2024-04-23T21:00:16.171Z,6.43
2024-04-23T21:02:43.219Z,6.13
2024-04-23T21:05:10.933Z,6.40
2024-04-23T21:07:40.637Z,6.53
2024-04-23T21:10:07.824Z,7.07
2024-04-23T21:12:34.904Z,7.00
2024-04-23T21:15:02.087Z,6.53
2024-04-23T21:17:29.139Z,6.95
2024-04-23T21:19:56.129Z,6.85
2024-04-23T21:22:23.135Z,6.43
2024-04-23T21:24:50.129Z,6.20
2024-04-23T21:27:17.124Z,5.93
2024-04-23T21:29:45.190Z,6.47
2024-04-23T21:32:12.686Z,6.45
2024-04-23T21:34:39.830Z,5.78
2024-04-23T21:37:06.842Z,6.85
2024-04-23T21:39:33.867Z,7.03
2024-04-23T21:42:00.873Z,5.90
2024-04-23T21:44:27.953Z,7.00
2024-04-23T21:46:55.031Z,7.70
2024-04-23T21:49:22.070Z,6.65
2024-04-23T21:52:15.145Z,6.70
2024-04-23T21:54:45.717Z,6.15
2024-04-23T21:57:13.495Z,5.75
2024-04-23T21:59:40.819Z,5.63
2024-04-23T22:02:07.951Z,5.88
2024-04-23T22:04:35.001Z,5.80
2024-04-23T22:07:01.984Z,5.47
2024-04-23T22:09:28.975Z,5.65
2024-04-23T22:11:56.082Z,5.25
2024-04-23T22:14:23.049Z,4.95
2024-04-23T22:16:50.470Z,5.13
2024-04-23T22:19:17.550Z,4.75
2024-04-23T22:21:44.505Z,4.97
2024-04-23T22:24:11.488Z,4.72
2024-04-23T22:26:38.467Z,5.13
2024-04-23T22:29:05.462Z,4.93
2024-04-23T22:31:32.495Z,5.30
2024-04-23T22:33:59.499Z,5.05
2024-04-23T22:36:26.685Z,5.18
2024-04-23T22:38:53.718Z,4.75
2024-04-23T22:41:20.913Z,5.82
2024-04-23T22:43:47.966Z,4.78
2024-04-23T22:46:14.966Z,5.30
2024-04-23T22:48:42.038Z,4.80
2024-04-23T22:51:09.037Z,5.00
2024-04-23T22:53:36.017Z,4.93
2024-04-23T22:56:03.164Z,5.03
2024-04-23T22:58:30.234Z,5.05
2024-04-23T23:00:57.298Z,5.38
2024-04-23T23:03:24.400Z,5.10
2024-04-23T23:05:51.390Z,5.45
2024-04-23T23:08:18.432Z,5.68
2024-04-23T23:10:45.163Z,4.93
2024-04-23T23:13:11.856Z,5.38
2024-04-23T23:15:38.523Z,5.60
2024-04-23T23:18:05.272Z,5.80
2024-04-23T23:20:32.255Z,5.18
2024-04-23T23:22:58.996Z,5.63
2024-04-23T23:25:25.804Z,4.43
2024-04-23T23:27:52.466Z,6.00
2024-04-23T23:30:19.168Z,5.68
2024-04-23T23:32:45.935Z,5.70
2024-04-23T23:35:12.765Z,5.63
2024-04-23T23:37:39.443Z,5.72
2024-04-23T23:40:07.524Z,5.35
2024-04-23T23:42:34.177Z,5.50
2024-04-23T23:45:00.826Z,5.03
2024-04-23T23:47:27.572Z,5.22
2024-04-23T23:49:54.378Z,5.53
2024-04-23T23:52:21.054Z,5.72
2024-04-23T23:54:47.764Z,5.07
2024-04-23T23:57:14.475Z,4.88
2024-04-23T23:59:41.135Z,5.68
